createdAt,value
2023-04-01T00:02:08.958Z,100.00
2023-04-01T00:04:52.326Z,100.00
2023-04-01T00:07:36.712Z,100.00
2023-04-01T00:10:28.591Z,100.00
2023-04-01T00:13:14.896Z,100.00
2023-04-01T00:15:57.660Z,100.00
2023-04-01T00:18:44.033Z,100.00
2023-04-01T00:21:37.447Z,100.00
2023-04-01T00:24:21.105Z,100.00
2023-04-01T00:27:07.477Z,100.00
2023-04-01T00:29:45.205Z,100.00
2023-04-01T00:32:31.661Z,100.00
2023-04-01T00:35:15.859Z,100.00
2023-04-01T00:37:59.061Z,100.00
2023-04-01T00:40:43.510Z,100.00
2023-04-01T00:43:22.342Z,100.00
2023-04-01T00:46:00.656Z,100.00
2023-04-01T00:48:50.505Z,100.00
2023-04-01T00:51:39.434Z,100.00
2023-04-01T00:54:22.765Z,100.00
2023-04-01T00:57:08.503Z,100.00
2023-04-01T00:59:53.806Z,100.00
2023-04-01T01:02:38.117Z,100.00
2023-04-01T01:05:48.097Z,100.00
2023-04-01T01:08:40.723Z,100.00
2023-04-01T01:11:33.540Z,100.00
2023-04-01T01:14:48.624Z,100.00
2023-04-01T01:17:58.414Z,100.00
2023-04-01T01:20:54.021Z,100.00
2023-04-01T01:23:36.342Z,100.00
2023-04-01T01:26:43.145Z,100.00
2023-04-01T01:29:47.030Z,100.00
2023-04-01T01:32:34.361Z,100.00
2023-04-01T01:35:33.722Z,100.00
2023-04-01T01:38:25.308Z,100.00
2023-04-01T01:41:17.768Z,100.00
2023-04-01T01:44:02.897Z,100.00
2023-04-01T01:46:48.692Z,100.00
2023-04-01T01:49:34.317Z,100.00
2023-04-01T01:52:21.302Z,100.00
2023-04-01T01:55:04.349Z,100.00
2023-04-01T01:57:51.300Z,100.00
2023-04-01T02:00:35.671Z,100.00
2023-04-01T02:03:17.425Z,100.00
2023-04-01T02:06:06.682Z,100.00
2023-04-01T02:09:11.626Z,100.00
2023-04-01T02:12:06.269Z,100.00
2023-04-01T02:15:19.025Z,100.00
2023-04-01T02:18:08.013Z,100.00
2023-04-01T02:20:49.832Z,100.00
2023-04-01T02:23:38.605Z,100.00
2023-04-01T02:26:29.917Z,100.00
2023-04-01T02:29:18.060Z,100.00
2023-04-01T02:31:57.910Z,100.00
2023-04-01T02:34:44.267Z,100.00
2023-04-01T02:37:24.862Z,100.00
2023-04-01T02:40:12.331Z,100.00
2023-04-01T02:42:58.059Z,100.00
2023-04-01T02:45:47.028Z,100.00
2023-04-01T02:48:31.239Z,100.00
2023-04-01T02:51:20.943Z,100.00
2023-04-01T02:54:01.862Z,100.00
2023-04-01T02:56:47.659Z,100.00
2023-04-01T02:59:35.426Z,100.00
2023-04-01T03:02:15.958Z,100.00
2023-04-01T03:05:02.903Z,100.00
2023-04-01T03:07:41.362Z,100.00
2023-04-01T03:10:28.539Z,100.00
2023-04-01T03:13:13.849Z,100.00
2023-04-01T03:16:01.793Z,100.00
2023-04-01T03:18:44.859Z,100.00
2023-04-01T03:21:25.668Z,100.00
2023-04-01T03:24:08.689Z,100.00
2023-04-01T03:26:49.550Z,100.00
2023-04-01T03:29:38.262Z,100.00
2023-04-01T03:32:19.738Z,100.00
2023-04-01T03:34:57.987Z,100.00
2023-04-01T03:37:42.107Z,100.00
2023-04-01T03:40:30.871Z,100.00
2023-04-01T03:43:12.285Z,100.00
2023-04-01T03:45:58.984Z,100.00
2023-04-01T03:48:42.458Z,100.00
2023-04-01T03:51:36.643Z,100.00
2023-04-01T03:54:20.444Z,100.00
2023-04-01T03:56:59.212Z,100.00
2023-04-01T03:59:46.033Z,100.00
2023-04-01T04:02:22.333Z,100.00
2023-04-01T04:05:09.313Z,100.00
2023-04-01T04:07:58.142Z,100.00
2023-04-01T04:10:36.605Z,100.00
2023-04-01T04:13:20.177Z,100.00
2023-04-01T04:16:14.110Z,100.00
2023-04-01T04:18:57.227Z,100.00
2023-04-01T04:21:37.360Z,100.00
2023-04-01T04:24:24.925Z,100.00
2023-04-01T04:27:16.843Z,100.00
2023-04-01T04:30:16.462Z,100.00
2023-04-01T04:33:00.287Z,100.00
2023-04-01T04:35:45.489Z,100.00
2023-04-01T04:38:32.418Z,100.00
2023-04-01T04:41:19.035Z,100.00
2023-04-01T04:44:00.840Z,100.00
2023-04-01T04:46:38.721Z,100.00
2023-04-01T04:49:26.278Z,100.00
2023-04-01T04:52:13.709Z,100.00
2023-04-01T04:54:57.008Z,100.00
2023-04-01T04:57:38.209Z,100.00
2023-04-01T05:00:31.894Z,100.00
2023-04-01T05:03:30.673Z,100.00
2023-04-01T05:06:06.071Z,100.00
2023-04-01T05:08:57.131Z,100.00
2023-04-01T05:11:40.880Z,100.00
2023-04-01T05:14:30.568Z,100.00
2023-04-01T05:17:21.664Z,100.00
2023-04-01T05:20:02.049Z,100.00
2023-04-01T05:22:43.203Z,100.00
2023-04-01T05:25:26.738Z,100.00
2023-04-01T05:28:16.253Z,100.00
2023-04-01T05:31:02.120Z,100.00
2023-04-01T05:34:00.326Z,100.00
2023-04-01T05:36:43.308Z,100.00
2023-04-01T05:39:31.142Z,100.00
2023-04-01T05:42:19.949Z,100.00
2023-04-01T05:45:01.227Z,100.00
2023-04-01T05:48:01.286Z,100.00
2023-04-01T05:51:09.730Z,100.00
2023-04-01T05:53:56.482Z,100.00
2023-04-01T05:56:47.505Z,100.00
2023-04-01T05:59:38.402Z,100.00
2023-04-01T06:02:28.892Z,100.00
2023-04-01T06:05:40.656Z,100.00
2023-04-01T06:08:20.407Z,100.00
2023-04-01T06:11:52.199Z,100.00
2023-04-01T06:14:44.023Z,100.00
2023-04-01T06:17:42.270Z,100.00
2023-04-01T06:20:47.899Z,100.00
2023-04-01T06:24:00.817Z,100.00
2023-04-01T06:27:12.500Z,100.00
2023-04-01T06:30:37.226Z,100.00
2023-04-01T06:33:31.272Z,100.00
2023-04-01T06:36:41.464Z,100.00
2023-04-01T06:39:28.543Z,100.00
2023-04-01T06:42:25.634Z,100.00
2023-04-01T06:45:50.358Z,100.00
2023-04-01T06:49:07.242Z,100.00
2023-04-01T06:52:30.572Z,100.00
2023-04-01T06:55:42.158Z,100.00
2023-04-01T06:58:41.838Z,100.00
2023-04-01T07:01:27.147Z,100.00
2023-04-01T07:04:07.277Z,100.00
2023-04-01T07:06:54.735Z,100.00
2023-04-01T07:09:44.161Z,100.00
2023-04-01T07:12:38.177Z,100.00
2023-04-01T07:16:01.524Z,100.00
2023-04-01T07:18:46.288Z,99.82
2023-04-01T07:21:38.796Z,100.00
2023-04-01T07:25:10.986Z,96.77
2023-04-01T07:27:50.914Z,99.68
2023-04-01T07:30:51.635Z,98.92
2023-04-01T07:33:52.626Z,96.11
2023-04-01T07:36:47.296Z,95.56
2023-04-01T07:39:46.094Z,100.00
2023-04-01T07:42:59.309Z,98.11
2023-04-01T07:45:51.147Z,98.92
2023-04-01T07:48:58.431Z,96.03
2023-04-01T07:51:46.717Z,95.40
2023-04-01T07:54:46.637Z,96.74
2023-04-01T07:57:29.301Z,91.60
2023-04-01T08:00:29.394Z,91.70
2023-04-01T08:03:21.327Z,91.73
2023-04-01T08:06:28.294Z,96.96
2023-04-01T08:09:29.839Z,95.71
2023-04-01T08:12:39.557Z,95.25
2023-04-01T08:16:13.752Z,95.26
2023-04-01T08:19:22.717Z,97.51
2023-04-01T08:22:05.746Z,94.68
2023-04-01T08:24:54.254Z,95.72
2023-04-01T08:27:41.520Z,95.98
2023-04-01T08:30:45.279Z,96.45
2023-04-01T08:33:35.994Z,95.73
2023-04-01T08:36:37.800Z,92.51
2023-04-01T08:39:50.565Z,89.46
2023-04-01T08:42:46.352Z,90.01
2023-04-01T08:45:41.709Z,89.32
2023-04-01T08:48:44.092Z,89.17
2023-04-01T08:51:39.771Z,90.85
2023-04-01T08:55:01.471Z,92.43
2023-04-01T08:58:22.023Z,91.27
2023-04-01T09:01:48.298Z,91.91
2023-04-01T09:05:12.699Z,86.41
2023-04-01T09:08:18.374Z,87.92
2023-04-01T09:11:35.618Z,86.96
2023-04-01T09:15:08.867Z,90.35
2023-04-01T09:18:10.362Z,91.28
2023-04-01T09:21:11.207Z,87.50
2023-04-01T09:24:05.187Z,83.87
2023-04-01T09:27:16.422Z,87.94
2023-04-01T09:30:13.927Z,87.89
2023-04-01T09:33:15.407Z,87.37
2023-04-01T09:36:10.533Z,88.98
2023-04-01T09:39:07.272Z,87.54
2023-04-01T09:42:19.044Z,83.09
2023-04-01T09:46:01.662Z,83.45
2023-04-01T09:49:21.770Z,86.71
2023-04-01T09:52:36.706Z,82.96
2023-04-01T09:55:51.082Z,84.00
2023-04-01T09:58:47.335Z,82.86
2023-04-01T10:01:47.298Z,81.57
2023-04-01T10:05:22.048Z,84.96
2023-04-01T10:09:04.982Z,81.79
2023-04-01T10:12:20.756Z,81.43
2023-04-01T10:15:27.312Z,82.46
2023-04-01T10:18:31.220Z,81.06
2023-04-01T10:21:20.227Z,79.22
2023-04-01T10:24:31.677Z,80.74
2023-04-01T10:27:42.630Z,83.59
2023-04-01T10:31:14.709Z,83.08
2023-04-01T10:34:19.735Z,83.41
2023-04-01T10:37:14.834Z,84.98
2023-04-01T10:40:23.698Z,84.79
2023-04-01T10:44:14.581Z,84.02
2023-04-01T10:47:13.232Z,86.14
2023-04-01T10:50:00.552Z,84.61
2023-04-01T10:53:19.192Z,85.07
2023-04-01T10:56:38.374Z,81.60
2023-04-01T11:00:21.514Z,85.72
2023-04-01T11:03:44.524Z,83.03
2023-04-01T11:07:26.609Z,80.76
2023-04-01T11:10:38.599Z,83.85
2023-04-01T11:14:42.397Z,82.87
2023-04-01T11:17:47.146Z,82.51
2023-04-01T11:21:06.703Z,77.47
2023-04-01T11:24:12.789Z,71.55
2023-04-01T11:27:39.877Z,71.72
2023-04-01T11:30:44.286Z,72.36
2023-04-01T11:33:56.955Z,72.80
2023-04-01T11:37:17.122Z,70.28
2023-04-01T11:40:44.180Z,69.12
2023-04-01T11:44:29.373Z,66.45
2023-04-01T11:47:29.853Z,69.08
2023-04-01T11:50:24.218Z,68.04
2023-04-01T11:53:34.212Z,67.93
2023-04-01T11:56:34.537Z,66.94
2023-04-01T11:59:47.478Z,67.88
2023-04-01T12:02:35.359Z,70.59
2023-04-01T12:05:35.754Z,72.89
2023-04-01T12:08:41.380Z,73.48
2023-04-01T12:11:42.260Z,77.16
2023-04-01T12:14:52.244Z,76.31
2023-04-01T12:17:49.548Z,74.29
2023-04-01T12:21:10.647Z,72.04
2023-04-01T12:24:34.380Z,70.47
2023-04-01T12:27:19.211Z,70.28
2023-04-01T12:30:35.177Z,68.66
2023-04-01T12:33:38.433Z,68.53
2023-04-01T12:36:29.395Z,65.66
2023-04-01T12:39:54.909Z,66.67
2023-04-01T12:42:53.373Z,68.59
2023-04-01T12:46:19.800Z,67.73
2023-04-01T12:49:19.757Z,66.48
2023-04-01T12:52:31.356Z,66.56
2023-04-01T12:55:56.644Z,64.69
2023-04-01T12:58:53.028Z,64.05
2023-04-01T13:02:15.287Z,63.65
2023-04-01T13:05:17.734Z,62.52
2023-04-01T13:08:14.324Z,59.89
2023-04-01T13:11:24.221Z,62.17
2023-04-01T13:14:43.969Z,60.81
2023-04-01T13:17:34.031Z,57.70
2023-04-01T13:20:38.393Z,59.07
2023-04-01T13:23:37.832Z,57.85
2023-04-01T13:26:46.270Z,59.52
2023-04-01T13:29:45.402Z,59.67
2023-04-01T13:32:51.208Z,56.00
2023-04-01T13:35:50.396Z,56.11
2023-04-01T13:38:56.396Z,56.36
2023-04-01T13:42:00.242Z,57.44
2023-04-01T13:44:58.675Z,58.74
2023-04-01T13:48:01.291Z,58.55
2023-04-01T13:51:07.309Z,56.95
2023-04-01T13:54:02.785Z,57.84
2023-04-01T13:57:00.383Z,57.18
2023-04-01T14:00:01.799Z,57.05
2023-04-01T14:03:24.764Z,55.66
2023-04-01T14:06:21.018Z,56.10
2023-04-01T14:09:29.676Z,57.98
2023-04-01T14:12:23.667Z,56.53
2023-04-01T14:15:40.235Z,55.13
2023-04-01T14:19:07.644Z,57.04
2023-04-01T14:21:59.989Z,56.84
2023-04-01T14:24:47.764Z,58.32
2023-04-01T14:27:43.878Z,59.68
2023-04-01T14:30:39.903Z,60.64
2023-04-01T14:33:46.028Z,60.68
2023-04-01T14:36:47.457Z,62.41
2023-04-01T14:39:47.819Z,61.74
2023-04-01T14:42:50.072Z,61.24
2023-04-01T14:45:46.733Z,59.54
2023-04-01T14:48:49.994Z,59.21
2023-04-01T14:51:54.162Z,59.66
2023-04-01T14:55:01.025Z,61.23
2023-04-01T14:58:02.491Z,61.36
2023-04-01T15:01:15.049Z,64.79
2023-04-01T15:04:34.402Z,67.20
2023-04-01T15:07:27.893Z,71.15
2023-04-01T15:10:26.899Z,71.57
2023-04-01T15:13:25.961Z,72.01
2023-04-01T15:16:33.005Z,72.57
2023-04-01T15:19:43.833Z,72.16
2023-04-01T15:22:57.668Z,71.69
2023-04-01T15:25:59.183Z,70.17
2023-04-01T15:29:03.304Z,70.97
2023-04-01T15:32:07.712Z,70.54
2023-04-01T15:35:25.205Z,69.82
2023-04-01T15:38:24.662Z,70.43
2023-04-01T15:41:20.636Z,69.87
2023-04-01T15:43:58.432Z,69.67
2023-04-01T15:46:51.228Z,69.95
2023-04-01T15:49:54.352Z,70.04
2023-04-01T15:53:07.640Z,72.16
2023-04-01T15:56:27.187Z,70.61
2023-04-01T15:59:34.830Z,71.12
2023-04-01T16:02:40.902Z,71.00
2023-04-01T16:05:37.517Z,72.10
2023-04-01T16:08:31.014Z,71.82
2023-04-01T16:11:33.782Z,72.02
2023-04-01T16:14:33.193Z,71.64
2023-04-01T16:17:36.435Z,71.64
2023-04-01T16:20:58.193Z,71.66
2023-04-01T16:23:54.441Z,67.71
2023-04-01T16:27:09.537Z,64.55
2023-04-01T16:30:09.349Z,60.66
2023-04-01T16:32:59.927Z,57.62
2023-04-01T16:36:17.087Z,55.83
2023-04-01T16:39:20.970Z,53.53
2023-04-01T16:42:12.033Z,53.23
2023-04-01T16:45:11.677Z,55.92
2023-04-01T16:47:56.229Z,58.57
2023-04-01T16:50:53.249Z,61.87
2023-04-01T16:54:20.281Z,63.76
2023-04-01T16:57:30.239Z,66.34
2023-04-01T17:00:27.153Z,68.38
2023-04-01T17:03:44.153Z,69.72
2023-04-01T17:06:32.546Z,70.96
2023-04-01T17:09:55.452Z,70.33
2023-04-01T17:12:43.310Z,70.75
2023-04-01T17:15:46.058Z,71.00
2023-04-01T17:18:54.886Z,71.39
2023-04-01T17:22:08.204Z,72.66
2023-04-01T17:25:19.405Z,73.71
2023-04-01T17:28:12.356Z,72.81
2023-04-01T17:31:22.552Z,74.33
2023-04-01T17:34:15.746Z,74.11
2023-04-01T17:37:18.764Z,75.13
2023-04-01T17:40:24.181Z,75.16
2023-04-01T17:43:34.024Z,75.79
2023-04-01T17:46:43.850Z,75.01
2023-04-01T17:49:34.124Z,75.55
2023-04-01T17:52:38.880Z,75.82
2023-04-01T17:55:38.350Z,75.47
2023-04-01T17:58:17.612Z,76.16
2023-04-01T18:01:23.993Z,77.55
2023-04-01T18:04:13.378Z,78.91
2023-04-01T18:07:12.934Z,79.34
2023-04-01T18:10:02.857Z,80.76
2023-04-01T18:13:07.209Z,80.93
2023-04-01T18:16:07.726Z,81.71
2023-04-01T18:19:20.909Z,82.45
2023-04-01T18:22:55.738Z,82.09
2023-04-01T18:25:49.691Z,82.31
2023-04-01T18:29:24.955Z,81.77
2023-04-01T18:32:37.844Z,82.72
2023-04-01T18:35:41.493Z,83.12
2023-04-01T18:38:38.390Z,83.84
2023-04-01T18:41:49.617Z,84.85
2023-04-01T18:44:43.340Z,86.41
2023-04-01T18:47:49.268Z,87.36
2023-04-01T18:50:40.819Z,87.01
2023-04-01T18:53:55.752Z,87.30
2023-04-01T18:56:46.500Z,87.55
2023-04-01T18:59:39.859Z,89.79
2023-04-01T19:02:34.991Z,90.61
2023-04-01T19:05:50.818Z,90.83
2023-04-01T19:08:52.158Z,89.72
2023-04-01T19:11:55.525Z,89.75
2023-04-01T19:15:06.577Z,90.83
2023-04-01T19:17:58.790Z,91.88
2023-04-01T19:20:50.152Z,92.82
2023-04-01T19:24:07.364Z,93.20
2023-04-01T19:27:14.572Z,93.17
2023-04-01T19:30:14.843Z,93.79
2023-04-01T19:33:28.909Z,93.76
2023-04-01T19:36:26.002Z,94.39
2023-04-01T19:39:34.332Z,94.75
2023-04-01T19:42:20.810Z,94.81
2023-04-01T19:45:37.373Z,95.77
2023-04-01T19:48:55.021Z,96.91
2023-04-01T19:52:16.684Z,98.26
2023-04-01T19:54:59.109Z,98.13
2023-04-01T19:57:55.301Z,99.20
2023-04-01T20:00:58.075Z,100.00
2023-04-01T20:03:49.667Z,100.00
2023-04-01T20:06:51.252Z,100.00
2023-04-01T20:09:57.591Z,100.00
2023-04-01T20:13:29.284Z,100.00
2023-04-01T20:16:47.595Z,100.00
2023-04-01T20:19:37.729Z,100.00
2023-04-01T20:22:38.188Z,100.00
2023-04-01T20:25:42.239Z,100.00
2023-04-01T20:28:41.740Z,100.00
2023-04-01T20:31:27.486Z,100.00
2023-04-01T20:34:32.669Z,100.00
2023-04-01T20:37:43.174Z,100.00
2023-04-01T20:40:41.456Z,100.00
2023-04-01T20:43:41.563Z,100.00
2023-04-01T20:47:03.703Z,100.00
2023-04-01T20:50:11.131Z,100.00
2023-04-01T20:53:07.514Z,100.00
2023-04-01T20:56:05.291Z,100.00
2023-04-01T20:58:59.013Z,100.00
2023-04-01T21:02:07.138Z,100.00
2023-04-01T21:05:34.036Z,100.00
2023-04-01T21:08:25.138Z,100.00
2023-04-01T21:11:10.140Z,100.00
2023-04-01T21:14:02.059Z,100.00
2023-04-01T21:17:25.916Z,100.00
2023-04-01T21:20:35.169Z,100.00
2023-04-01T21:24:03.848Z,100.00
2023-04-01T21:27:10.663Z,100.00
2023-04-01T21:30:16.229Z,100.00
2023-04-01T21:33:28.278Z,100.00
2023-04-01T21:36:39.943Z,100.00
2023-04-01T21:39:26.733Z,100.00
2023-04-01T21:42:39.680Z,100.00
2023-04-01T21:45:37.153Z,100.00
2023-04-01T21:48:28.115Z,100.00
2023-04-01T21:51:44.977Z,100.00
2023-04-01T21:54:47.525Z,100.00
2023-04-01T21:57:45.030Z,100.00
2023-04-01T22:00:52.092Z,100.00
2023-04-01T22:03:50.895Z,100.00
2023-04-01T22:06:52.977Z,100.00
2023-04-01T22:09:42.393Z,100.00
2023-04-01T22:12:33.239Z,100.00
2023-04-01T22:15:37.112Z,100.00
2023-04-01T22:18:28.279Z,100.00
2023-04-01T22:21:20.365Z,100.00
2023-04-01T22:24:08.417Z,100.00
2023-04-01T22:27:19.734Z,100.00
2023-04-01T22:30:27.773Z,100.00
2023-04-01T22:33:31.079Z,100.00
2023-04-01T22:36:23.619Z,100.00
2023-04-01T22:39:13.996Z,100.00
2023-04-01T22:42:00.331Z,100.00
2023-04-01T22:44:55.263Z,100.00
2023-04-01T22:47:44.218Z,100.00
2023-04-01T22:50:42.573Z,100.00
2023-04-01T22:53:29.818Z,100.00
2023-04-01T22:56:12.269Z,100.00
2023-04-01T22:59:01.908Z,100.00
2023-04-01T23:01:47.149Z,100.00
2023-04-01T23:04:35.607Z,100.00
2023-04-01T23:07:35.738Z,100.00
2023-04-01T23:10:43.612Z,100.00
2023-04-01T23:13:54.640Z,100.00
2023-04-01T23:16:59.669Z,100.00
2023-04-01T23:20:02.062Z,100.00
2023-04-01T23:23:03.375Z,100.00
2023-04-01T23:26:17.925Z,100.00
2023-04-01T23:29:07.545Z,100.00
2023-04-01T23:32:04.483Z,100.00
2023-04-01T23:34:44.767Z,100.00
2023-04-01T23:37:35.942Z,100.00
2023-04-01T23:40:20.617Z,100.00
2023-04-01T23:43:00.723Z,100.00
2023-04-01T23:45:41.583Z,100.00
2023-04-01T23:48:27.215Z,100.00
2023-04-01T23:51:14.856Z,100.00
2023-04-01T23:54:08.889Z,100.00
2023-04-01T23:56:57.825Z,100.00
2023-04-01T23:59:45.614Z,100.00
